createdAt,value
2022-09-12T00:03:02.065Z,84.65
2022-09-12T00:05:54.402Z,84.71
2022-09-12T00:08:26.115Z,84.47
2022-09-12T00:11:18.770Z,83.97
2022-09-12T00:14:11.203Z,83.74
2022-09-12T00:17:04.290Z,83.42
2022-09-12T00:19:56.878Z,83.17
2022-09-12T00:22:48.955Z,82.80
2022-09-12T00:25:46.268Z,82.77
2022-09-12T00:28:40.688Z,82.31
2022-09-12T00:31:27.820Z,82.26
2022-09-12T00:34:20.039Z,82.10
2022-09-12T00:37:02.958Z,81.63
2022-09-12T00:39:55.140Z,81.49
2022-09-12T00:42:47.392Z,81.56
2022-09-12T00:45:39.500Z,81.63
2022-09-12T00:48:36.454Z,81.65
2022-09-12T00:51:30.601Z,81.85
2022-09-12T00:54:20.469Z,81.37
2022-09-12T00:57:15.285Z,81.34
2022-09-12T01:00:14.508Z,81.18
2022-09-12T01:03:01.159Z,80.83
2022-09-12T01:06:00.924Z,80.68
2022-09-12T01:08:55.795Z,80.16
2022-09-12T01:11:49.698Z,79.66
2022-09-12T01:14:42.097Z,79.71
2022-09-12T01:17:41.463Z,80.06
2022-09-12T01:20:52.097Z,80.34
2022-09-12T01:24:10.966Z,80.56
2022-09-12T01:27:34.655Z,81.10
2022-09-12T01:30:23.696Z,81.54
2022-09-12T01:33:32.743Z,81.93
2022-09-12T01:36:33.661Z,81.86
2022-09-12T01:39:28.106Z,81.95
2022-09-12T01:42:28.000Z,82.01
2022-09-12T01:45:27.840Z,81.83
2022-09-12T01:48:24.140Z,81.72
2022-09-12T01:51:22.869Z,81.36
2022-09-12T01:54:12.138Z,81.39
2022-09-12T01:56:58.044Z,81.14
2022-09-12T01:59:56.534Z,81.19
2022-09-12T02:02:33.933Z,81.37
2022-09-12T02:05:22.265Z,81.13
2022-09-12T02:08:18.875Z,81.05
2022-09-12T02:11:13.420Z,81.13
2022-09-12T02:14:08.448Z,81.13
2022-09-12T02:17:07.523Z,80.90
2022-09-12T02:20:04.258Z,81.12
2022-09-12T02:22:58.905Z,81.38
2022-09-12T02:25:54.845Z,81.02
2022-09-12T02:28:47.657Z,80.95
2022-09-12T02:31:46.026Z,81.04
2022-09-12T02:34:49.584Z,80.74
2022-09-12T02:37:54.809Z,80.93
2022-09-12T02:40:47.193Z,80.88
2022-09-12T02:43:40.609Z,80.97
2022-09-12T02:46:29.949Z,81.17
2022-09-12T02:49:23.337Z,80.89
2022-09-12T02:52:16.126Z,80.92
2022-09-12T02:54:58.859Z,81.14
2022-09-12T02:57:50.982Z,81.27
2022-09-12T03:00:49.660Z,81.34
2022-09-12T03:03:59.612Z,81.47
2022-09-12T03:07:03.275Z,81.56
2022-09-12T03:09:50.493Z,81.65
2022-09-12T03:12:59.523Z,81.52
2022-09-12T03:15:54.324Z,81.54
2022-09-12T03:18:56.287Z,81.54
2022-09-12T03:22:01.461Z,81.58
2022-09-12T03:25:02.009Z,81.60
2022-09-12T03:28:06.210Z,81.89
2022-09-12T03:30:59.713Z,82.13
2022-09-12T03:33:52.148Z,82.23
2022-09-12T03:36:44.357Z,82.20
2022-09-12T03:39:36.679Z,82.00
2022-09-12T03:42:28.933Z,81.88
2022-09-12T03:45:21.363Z,81.67
2022-09-12T03:48:13.710Z,81.80
2022-09-12T03:51:08.106Z,82.00
2022-09-12T03:54:00.284Z,82.04
2022-09-12T03:56:52.712Z,82.03
2022-09-12T03:59:45.143Z,82.29
2022-09-12T04:02:17.588Z,82.51
2022-09-12T04:05:10.554Z,82.88
2022-09-12T04:08:03.193Z,83.31
2022-09-12T04:10:55.416Z,83.47
2022-09-12T04:13:48.694Z,83.48
2022-09-12T04:16:41.425Z,83.60
2022-09-12T04:19:33.650Z,83.44
2022-09-12T04:22:26.073Z,83.39
2022-09-12T04:25:18.714Z,83.32
2022-09-12T04:28:10.998Z,83.32
2022-09-12T04:31:07.107Z,83.39
2022-09-12T04:34:01.365Z,83.62
2022-09-12T04:36:53.571Z,83.74
2022-09-12T04:39:45.849Z,83.70
2022-09-12T04:42:38.121Z,83.35
2022-09-12T04:45:30.447Z,83.39
2022-09-12T04:48:21.710Z,83.20
2022-09-12T04:51:17.254Z,83.04
2022-09-12T04:54:01.745Z,83.02
2022-09-12T04:56:54.936Z,83.04
2022-09-12T04:59:47.358Z,82.93
2022-09-12T05:02:40.046Z,82.59
2022-09-12T05:05:32.443Z,82.32
2022-09-12T05:08:15.722Z,82.46
2022-09-12T05:11:09.940Z,82.21
2022-09-12T05:14:02.149Z,82.16
2022-09-12T05:16:56.444Z,82.23
2022-09-12T05:19:49.568Z,81.74
2022-09-12T05:22:41.958Z,81.81
2022-09-12T05:25:34.255Z,81.76
2022-09-12T05:28:30.452Z,81.81
2022-09-12T05:31:23.867Z,81.82
2022-09-12T05:34:16.268Z,81.87
2022-09-12T05:37:08.750Z,81.68
2022-09-12T05:40:01.605Z,81.71
2022-09-12T05:42:54.950Z,81.63
2022-09-12T05:45:30.767Z,81.64
2022-09-12T05:48:26.700Z,81.61
2022-09-12T05:51:04.956Z,81.57
2022-09-12T05:53:51.707Z,81.22
2022-09-12T05:56:39.437Z,81.18
2022-09-12T05:59:31.489Z,81.11
2022-09-12T06:02:23.707Z,80.77
2022-09-12T06:05:15.988Z,80.76
2022-09-12T06:08:07.220Z,80.82
2022-09-12T06:11:03.529Z,80.62
2022-09-12T06:13:56.924Z,80.13
2022-09-12T06:16:33.373Z,80.04
2022-09-12T06:19:27.651Z,79.85
2022-09-12T06:22:20.020Z,79.65
2022-09-12T06:25:12.517Z,79.59
2022-09-12T06:28:05.244Z,79.20
2022-09-12T06:31:02.440Z,79.21
2022-09-12T06:33:47.971Z,79.28
2022-09-12T06:36:42.152Z,79.20
2022-09-12T06:39:36.811Z,78.94
2022-09-12T06:42:20.115Z,78.74
2022-09-12T06:45:14.310Z,78.27
2022-09-12T06:48:06.843Z,78.46
2022-09-12T06:51:00.078Z,78.26
2022-09-12T06:53:52.487Z,77.92
2022-09-12T06:56:45.225Z,77.87
2022-09-12T06:59:37.461Z,77.30
2022-09-12T07:02:29.842Z,77.07
2022-09-12T07:05:22.219Z,77.37
2022-09-12T07:08:14.411Z,77.55
2022-09-12T07:11:13.928Z,77.50
2022-09-12T07:14:07.499Z,77.40
2022-09-12T07:16:59.779Z,76.97
2022-09-12T07:19:52.060Z,76.94
2022-09-12T07:22:44.256Z,76.68
2022-09-12T07:25:36.589Z,76.38
2022-09-12T07:28:30.290Z,76.62
2022-09-12T07:31:23.614Z,75.97
2022-09-12T07:34:16.025Z,75.27
2022-09-12T07:37:08.947Z,74.84
2022-09-12T07:40:02.368Z,74.61
2022-09-12T07:42:55.197Z,74.39
2022-09-12T07:45:47.798Z,74.17
2022-09-12T07:48:41.060Z,73.44
2022-09-12T07:51:34.127Z,73.13
2022-09-12T07:54:19.965Z,73.52
2022-09-12T07:57:11.972Z,73.93
2022-09-12T08:00:04.962Z,74.26
2022-09-12T08:02:57.851Z,74.48
2022-09-12T08:05:49.985Z,75.11
2022-09-12T08:08:31.886Z,74.96
2022-09-12T08:11:25.407Z,74.53
2022-09-12T08:14:18.415Z,74.49
2022-09-12T08:17:10.659Z,74.26
2022-09-12T08:19:42.461Z,74.39
2022-09-12T08:22:25.917Z,74.16
2022-09-12T08:25:01.129Z,74.39
2022-09-12T08:27:53.351Z,74.38
2022-09-12T08:30:45.484Z,74.49
2022-09-12T08:33:37.977Z,74.86
2022-09-12T08:36:30.666Z,74.41
2022-09-12T08:39:23.136Z,74.49
2022-09-12T08:42:26.774Z,74.66
2022-09-12T08:45:22.239Z,74.32
2022-09-12T08:48:15.539Z,74.39
2022-09-12T08:51:01.444Z,74.21
2022-09-12T08:53:56.976Z,74.00
2022-09-12T08:56:49.457Z,74.10
2022-09-12T08:59:44.883Z,73.68
2022-09-12T09:03:14.921Z,72.78
2022-09-12T09:06:15.956Z,72.40
2022-09-12T09:09:17.449Z,72.52
2022-09-12T09:12:20.816Z,73.33
2022-09-12T09:15:25.494Z,73.54
2022-09-12T09:18:23.784Z,74.00
2022-09-12T09:21:24.718Z,74.53
2022-09-12T09:24:23.133Z,75.54
2022-09-12T09:27:40.092Z,76.14
2022-09-12T09:30:24.005Z,76.94
2022-09-12T09:33:24.273Z,77.50
2022-09-12T09:36:22.632Z,78.17
2022-09-12T09:39:22.080Z,78.31
2022-09-12T09:42:25.652Z,78.35
2022-09-12T09:45:20.729Z,77.99
2022-09-12T09:48:20.176Z,77.25
2022-09-12T09:51:13.035Z,77.05
2022-09-12T09:54:01.862Z,76.61
2022-09-12T09:56:54.267Z,75.85
2022-09-12T09:59:46.353Z,75.93
2022-09-12T10:02:41.669Z,75.97
2022-09-12T10:05:24.014Z,75.63
2022-09-12T10:08:23.369Z,75.15
2022-09-12T10:11:23.325Z,74.44
2022-09-12T10:14:35.193Z,73.92
2022-09-12T10:17:34.126Z,73.89
2022-09-12T10:20:36.034Z,74.15
2022-09-12T10:23:33.404Z,74.15
2022-09-12T10:26:22.837Z,74.45
2022-09-12T10:29:19.922Z,74.66
2022-09-12T10:32:12.837Z,74.72
2022-09-12T10:35:09.236Z,75.38
2022-09-12T10:37:59.626Z,76.01
2022-09-12T10:41:00.380Z,76.99
2022-09-12T10:43:52.863Z,77.68
2022-09-12T10:46:38.070Z,78.41
2022-09-12T10:49:38.154Z,78.49
2022-09-12T10:52:24.785Z,79.27
2022-09-12T10:54:59.588Z,79.04
2022-09-12T10:57:56.251Z,79.53
2022-09-12T11:00:54.697Z,79.83
2022-09-12T11:03:54.603Z,79.94
2022-09-12T11:06:55.354Z,79.89
2022-09-12T11:09:56.021Z,80.27
2022-09-12T11:12:44.756Z,80.88
2022-09-12T11:15:44.698Z,81.22
2022-09-12T11:18:51.872Z,81.63
2022-09-12T11:21:49.606Z,81.59
2022-09-12T11:24:59.820Z,81.96
2022-09-12T11:28:00.306Z,82.11
2022-09-12T11:30:39.112Z,82.32
2022-09-12T11:33:43.157Z,82.51
2022-09-12T11:36:40.622Z,82.60
2022-09-12T11:39:40.433Z,82.88
2022-09-12T11:42:36.507Z,83.22
2022-09-12T11:45:33.447Z,83.45
2022-09-12T11:48:28.747Z,83.63
2022-09-12T11:51:25.835Z,83.33
2022-09-12T11:54:26.176Z,82.94
2022-09-12T11:57:24.703Z,82.29
2022-09-12T12:00:21.112Z,81.99
2022-09-12T12:03:21.696Z,82.06
2022-09-12T12:06:08.142Z,82.30
2022-09-12T12:09:00.842Z,82.19
2022-09-12T12:12:06.699Z,81.79
2022-09-12T12:15:02.217Z,81.90
2022-09-12T12:18:06.386Z,81.90
2022-09-12T12:21:18.823Z,81.73
2022-09-12T12:24:20.282Z,81.82
2022-09-12T12:27:03.774Z,82.19
2022-09-12T12:29:46.089Z,82.44
2022-09-12T12:32:38.204Z,82.27
2022-09-12T12:35:43.977Z,82.15
2022-09-12T12:38:40.900Z,82.17
2022-09-12T12:41:48.500Z,82.17
2022-09-12T12:44:53.186Z,82.46
2022-09-12T12:47:45.815Z,81.79
2022-09-12T12:50:28.090Z,81.61
2022-09-12T12:53:27.781Z,82.07
2022-09-12T12:56:40.394Z,82.15
2022-09-12T12:59:24.756Z,82.45
2022-09-12T13:02:24.027Z,82.84
2022-09-12T13:05:24.287Z,82.57
2022-09-12T13:08:31.824Z,82.80
2022-09-12T13:11:34.723Z,82.93
2022-09-12T13:14:38.861Z,83.24
2022-09-12T13:17:39.233Z,83.89
2022-09-12T13:20:34.616Z,84.25
2022-09-12T13:23:29.467Z,85.08
2022-09-12T13:26:02.903Z,85.64
2022-09-12T13:29:11.889Z,86.05
2022-09-12T13:32:04.640Z,86.05
2022-09-12T13:35:09.376Z,86.41
2022-09-12T13:38:08.661Z,86.41
2022-09-12T13:41:08.841Z,86.28
2022-09-12T13:43:56.806Z,86.43
2022-09-12T13:46:50.212Z,86.29
2022-09-12T13:49:44.177Z,86.15
2022-09-12T13:52:39.184Z,86.11
2022-09-12T13:55:35.659Z,86.26
2022-09-12T13:58:23.386Z,86.10
2022-09-12T14:01:17.446Z,85.95
2022-09-12T14:04:18.164Z,86.12
2022-09-12T14:07:01.188Z,86.07
2022-09-12T14:09:59.418Z,86.29
2022-09-12T14:12:51.981Z,86.15
2022-09-12T14:15:48.426Z,86.17
2022-09-12T14:18:45.222Z,85.91
2022-09-12T14:21:39.745Z,86.23
2022-09-12T14:24:32.397Z,86.31
2022-09-12T14:27:08.508Z,86.57
2022-09-12T14:29:55.974Z,86.72
2022-09-12T14:33:02.951Z,86.81
2022-09-12T14:36:11.438Z,86.77
2022-09-12T14:39:07.579Z,86.42
2022-09-12T14:42:07.549Z,86.45
2022-09-12T14:44:44.664Z,86.28
2022-09-12T14:47:25.632Z,86.15
2022-09-12T14:50:00.643Z,86.28
2022-09-12T14:52:45.652Z,86.37
2022-09-12T14:55:46.451Z,86.31
2022-09-12T14:58:39.717Z,86.37
2022-09-12T15:01:30.200Z,86.01
2022-09-12T15:04:42.278Z,86.05
2022-09-12T15:07:36.888Z,85.94
2022-09-12T15:10:32.395Z,85.98
2022-09-12T15:13:19.793Z,85.79
2022-09-12T15:16:12.886Z,85.86
2022-09-12T15:19:05.175Z,85.73
2022-09-12T15:21:57.568Z,85.95
2022-09-12T15:24:49.728Z,85.82
2022-09-12T15:27:42.479Z,86.04
2022-09-12T15:30:34.575Z,85.94
2022-09-12T15:33:27.855Z,85.96
2022-09-12T15:36:21.796Z,85.87
2022-09-12T15:39:13.872Z,85.92
2022-09-12T15:42:06.367Z,85.82
2022-09-12T15:45:02.526Z,85.96
2022-09-12T15:47:55.010Z,85.92
2022-09-12T15:50:47.351Z,86.21
2022-09-12T15:53:40.349Z,85.94
2022-09-12T15:56:32.021Z,85.99
2022-09-12T15:59:24.057Z,85.78
2022-09-12T16:02:19.345Z,85.86
2022-09-12T16:05:17.093Z,85.79
2022-09-12T16:08:09.664Z,85.68
2022-09-12T16:11:05.600Z,85.65
2022-09-12T16:13:58.028Z,85.67
2022-09-12T16:16:57.124Z,85.84
2022-09-12T16:19:49.060Z,85.87
2022-09-12T16:22:41.606Z,85.80
2022-09-12T16:25:34.149Z,85.60
2022-09-12T16:28:26.119Z,85.30
2022-09-12T16:31:18.260Z,85.48
2022-09-12T16:34:11.606Z,85.38
2022-09-12T16:37:03.923Z,85.41
2022-09-12T16:39:55.986Z,85.23
2022-09-12T16:42:47.942Z,84.99
2022-09-12T16:45:28.369Z,85.01
2022-09-12T16:48:20.357Z,84.64
2022-09-12T16:51:03.828Z,84.57
2022-09-12T16:53:57.461Z,85.00
2022-09-12T16:56:29.300Z,85.22
2022-09-12T16:59:21.310Z,85.00
2022-09-12T17:02:15.008Z,85.04
2022-09-12T17:05:00.824Z,85.06
2022-09-12T17:07:52.812Z,85.06
2022-09-12T17:10:45.059Z,85.10
2022-09-12T17:14:03.409Z,85.14
2022-09-12T17:16:53.256Z,85.36
2022-09-12T17:19:45.399Z,85.24
2022-09-12T17:22:37.480Z,85.28
2022-09-12T17:25:19.460Z,84.97
2022-09-12T17:28:00.641Z,84.99
2022-09-12T17:30:43.608Z,85.36
2022-09-12T17:33:19.732Z,85.31
2022-09-12T17:36:05.514Z,85.42
2022-09-12T17:38:58.120Z,84.88
2022-09-12T17:41:52.305Z,85.25
2022-09-12T17:44:36.288Z,85.16
2022-09-12T17:47:29.261Z,84.83
2022-09-12T17:50:31.623Z,84.67
2022-09-12T17:53:25.706Z,84.74
2022-09-12T17:56:20.391Z,84.70
2022-09-12T17:59:21.659Z,84.79
2022-09-12T18:02:16.135Z,84.75
2022-09-12T18:05:10.759Z,84.64
2022-09-12T18:08:03.448Z,84.64
2022-09-12T18:10:56.015Z,85.07
2022-09-12T18:13:48.663Z,84.60
2022-09-12T18:16:21.037Z,84.84
2022-09-12T18:19:03.562Z,85.13
2022-09-12T18:21:56.440Z,85.06
2022-09-12T18:24:48.884Z,85.01
2022-09-12T18:27:41.362Z,85.24
2022-09-12T18:30:34.082Z,84.91
2022-09-12T18:33:26.342Z,84.56
2022-09-12T18:36:06.213Z,84.59
2022-09-12T18:38:41.921Z,84.69
2022-09-12T18:41:34.351Z,85.09
2022-09-12T18:44:16.477Z,85.50
2022-09-12T18:47:10.044Z,85.60
2022-09-12T18:50:01.700Z,85.29
2022-09-12T18:52:59.609Z,85.14
2022-09-12T18:55:52.315Z,85.13
2022-09-12T18:58:34.235Z,85.01
2022-09-12T19:01:19.797Z,84.81
2022-09-12T19:04:13.190Z,84.64
2022-09-12T19:07:05.891Z,84.85
2022-09-12T19:09:49.727Z,84.69
2022-09-12T19:12:42.763Z,85.04
2022-09-12T19:15:22.175Z,85.09
2022-09-12T19:17:54.278Z,84.93
2022-09-12T19:20:51.272Z,84.70
2022-09-12T19:23:43.608Z,84.61
2022-09-12T19:26:37.823Z,84.53
2022-09-12T19:29:30.317Z,84.27
2022-09-12T19:32:22.539Z,84.47
2022-09-12T19:35:14.461Z,84.36
2022-09-12T19:38:07.006Z,84.04
2022-09-12T19:41:00.325Z,84.47
2022-09-12T19:43:52.526Z,84.86
2022-09-12T19:46:44.729Z,85.17
2022-09-12T19:49:39.535Z,85.36
2022-09-12T19:52:31.618Z,85.16
2022-09-12T19:55:23.896Z,85.60
2022-09-12T19:58:16.041Z,85.61
2022-09-12T20:01:12.636Z,85.88
2022-09-12T20:04:05.450Z,86.05
2022-09-12T20:06:57.092Z,85.89
2022-09-12T20:09:49.316Z,85.95
2022-09-12T20:12:41.588Z,86.05
2022-09-12T20:15:34.669Z,86.20
2022-09-12T20:18:20.682Z,86.02
2022-09-12T20:21:15.157Z,85.75
2022-09-12T20:24:11.089Z,86.05
2022-09-12T20:27:03.129Z,86.20
2022-09-12T20:29:56.597Z,86.18
2022-09-12T20:32:48.687Z,86.14
2022-09-12T20:35:30.852Z,86.14
2022-09-12T20:38:23.062Z,86.44
2022-09-12T20:41:15.234Z,86.21
2022-09-12T20:43:58.834Z,86.06
2022-09-12T20:46:50.972Z,86.15
2022-09-12T20:49:43.638Z,85.96
2022-09-12T20:52:35.682Z,86.08
2022-09-12T20:55:27.700Z,86.29
2022-09-12T20:58:20.397Z,86.20
2022-09-12T21:01:13.937Z,86.44
2022-09-12T21:04:07.027Z,86.48
2022-09-12T21:07:01.260Z,86.51
2022-09-12T21:09:54.367Z,86.62
2022-09-12T21:12:46.360Z,86.78
2022-09-12T21:15:41.248Z,86.84
2022-09-12T21:18:34.376Z,86.66
2022-09-12T21:21:27.261Z,86.74
2022-09-12T21:24:19.457Z,86.89
2022-09-12T21:27:11.888Z,86.72
2022-09-12T21:29:57.521Z,86.63
2022-09-12T21:32:49.467Z,86.89
2022-09-12T21:35:41.480Z,86.67
2022-09-12T21:38:33.863Z,86.44
2022-09-12T21:41:24.559Z,86.44
2022-09-12T21:44:16.713Z,86.37
2022-09-12T21:47:09.332Z,86.27
2022-09-12T21:50:01.466Z,86.04
2022-09-12T21:52:53.691Z,86.00
2022-09-12T21:55:45.689Z,86.25
2022-09-12T21:58:39.327Z,86.45
2022-09-12T22:01:31.542Z,86.26
2022-09-12T22:04:25.223Z,86.36
2022-09-12T22:07:17.790Z,86.32
2022-09-12T22:10:11.241Z,86.33
2022-09-12T22:13:03.323Z,86.39
2022-09-12T22:15:55.414Z,86.37
2022-09-12T22:18:48.059Z,86.80
2022-09-12T22:22:00.160Z,86.47
2022-09-12T22:24:53.562Z,86.69
2022-09-12T22:27:44.025Z,86.91
2022-09-12T22:30:36.089Z,87.01
2022-09-12T22:33:29.157Z,86.96
2022-09-12T22:36:21.118Z,86.99
2022-09-12T22:39:13.435Z,87.07
2022-09-12T22:42:05.703Z,87.42
2022-09-12T22:44:57.820Z,87.52
2022-09-12T22:47:49.943Z,87.10
2022-09-12T22:50:42.579Z,86.93
2022-09-12T22:53:34.968Z,87.09
2022-09-12T22:56:28.660Z,87.46
2022-09-12T22:59:20.738Z,86.86
2022-09-12T23:02:12.734Z,86.72
2022-09-12T23:05:05.028Z,87.05
2022-09-12T23:07:57.221Z,87.10
2022-09-12T23:10:50.858Z,86.94
2022-09-12T23:13:45.390Z,86.55
2022-09-12T23:16:37.356Z,86.16
2022-09-12T23:19:29.436Z,85.99
2022-09-12T23:22:21.398Z,85.69
2022-09-12T23:25:02.087Z,85.55
2022-09-12T23:27:54.587Z,85.40
2022-09-12T23:30:46.578Z,85.84
2022-09-12T23:33:39.020Z,86.34
2022-09-12T23:36:31.464Z,86.68
2022-09-12T23:39:22.299Z,86.77
2022-09-12T23:42:16.413Z,86.64
2022-09-12T23:45:10.393Z,86.54
2022-09-12T23:48:02.505Z,86.84
2022-09-12T23:50:54.923Z,86.67
2022-09-12T23:53:46.904Z,86.66
2022-09-12T23:56:38.935Z,87.00
2022-09-12T23:59:31.789Z,86.96
